createdAt,value
2018-12-27T00:02:23.235Z,6.10
2018-12-27T00:04:53.608Z,6.10
2018-12-27T00:07:24.014Z,6.10
2018-12-27T00:09:55.398Z,6.10
2018-12-27T00:12:25.880Z,6.10
2018-12-27T00:14:57.004Z,6.00
2018-12-27T00:17:27.331Z,5.90
2018-12-27T00:19:57.670Z,6.00
2018-12-27T00:22:28.141Z,6.00
2018-12-27T00:24:58.582Z,6.00
2018-12-27T00:27:29.023Z,6.00
2018-12-27T00:30:02.495Z,6.00
2018-12-27T00:32:33.484Z,6.00
2018-12-27T00:35:04.344Z,6.00
2018-12-27T00:37:34.950Z,6.00
2018-12-27T00:40:05.906Z,6.00
2018-12-27T00:42:36.431Z,6.00
2018-12-27T00:45:07.754Z,6.10
2018-12-27T00:47:38.370Z,6.10
2018-12-27T00:50:09.028Z,6.20
2018-12-27T00:52:39.588Z,6.20
2018-12-27T00:55:10.218Z,6.20
2018-12-27T00:57:40.815Z,6.10
2018-12-27T01:00:11.454Z,6.10
2018-12-27T01:02:42.201Z,6.10
2018-12-27T01:05:12.836Z,6.00
2018-12-27T01:07:43.456Z,6.00
2018-12-27T01:10:14.139Z,6.00
2018-12-27T01:12:44.738Z,5.90
2018-12-27T01:15:15.335Z,5.80
2018-12-27T01:17:46.139Z,5.80
2018-12-27T01:20:17.654Z,5.90
2018-12-27T01:22:48.275Z,6.00
2018-12-27T01:25:18.722Z,5.90
2018-12-27T01:27:49.263Z,5.80
2018-12-27T01:30:20.443Z,5.80
2018-12-27T01:32:51.034Z,5.90
2018-12-27T01:35:21.658Z,5.90
2018-12-27T01:37:52.274Z,5.80
2018-12-27T01:40:23.815Z,5.80
2018-12-27T01:42:54.586Z,5.80
2018-12-27T01:45:25.406Z,5.80
2018-12-27T01:47:56.003Z,5.70
2018-12-27T01:50:26.619Z,5.80
2018-12-27T01:52:57.106Z,5.90
2018-12-27T01:55:27.691Z,5.90
2018-12-27T01:57:58.193Z,5.80
2018-12-27T02:00:28.773Z,5.90
2018-12-27T02:02:59.404Z,5.90
2018-12-27T02:05:30.544Z,6.00
2018-12-27T02:08:01.124Z,5.80
2018-12-27T02:10:33.405Z,5.80
2018-12-27T02:13:03.933Z,5.90
2018-12-27T02:15:34.508Z,5.80
2018-12-27T02:18:05.041Z,5.80
2018-12-27T02:20:35.618Z,5.80
2018-12-27T02:23:07.555Z,5.90
2018-12-27T02:25:38.180Z,5.70
2018-12-27T02:28:08.762Z,5.70
2018-12-27T02:30:39.996Z,5.70
2018-12-27T02:33:10.474Z,5.80
2018-12-27T02:35:41.295Z,5.80
2018-12-27T02:38:12.379Z,5.80
2018-12-27T02:40:43.036Z,5.90
2018-12-27T02:43:13.584Z,6.00
2018-12-27T02:45:44.683Z,6.00
2018-12-27T02:48:15.186Z,6.00
2018-12-27T02:50:45.835Z,5.90
2018-12-27T02:53:16.493Z,5.90
2018-12-27T02:55:47.058Z,5.90
2018-12-27T02:58:17.685Z,5.90
2018-12-27T03:00:48.158Z,5.80
2018-12-27T03:03:18.676Z,5.80
2018-12-27T03:05:49.486Z,5.90
2018-12-27T03:08:20.080Z,5.90
2018-12-27T03:10:50.633Z,5.90
2018-12-27T03:13:21.102Z,5.90
2018-12-27T03:15:52.367Z,5.90
2018-12-27T03:18:24.010Z,5.90
2018-12-27T03:20:54.635Z,5.90
2018-12-27T03:23:25.254Z,5.90
2018-12-27T03:25:55.867Z,5.90
2018-12-27T03:28:26.323Z,5.90
2018-12-27T03:30:56.994Z,6.00
2018-12-27T03:33:27.522Z,6.00
2018-12-27T03:35:58.099Z,5.90
2018-12-27T03:38:29.422Z,6.00
2018-12-27T03:40:59.877Z,6.00
2018-12-27T03:43:30.423Z,6.00
2018-12-27T03:46:01.016Z,6.00
2018-12-27T03:48:31.505Z,6.00
2018-12-27T03:51:02.080Z,5.80
2018-12-27T03:53:32.949Z,5.90
2018-12-27T03:56:03.483Z,6.00
2018-12-27T03:58:34.065Z,6.00
2018-12-27T04:01:04.664Z,5.90
2018-12-27T04:03:35.225Z,5.80
2018-12-27T04:06:08.527Z,5.80
2018-12-27T04:08:39.072Z,5.90
2018-12-27T04:11:09.744Z,6.00
2018-12-27T04:13:40.391Z,6.00
2018-12-27T04:16:10.773Z,6.00
2018-12-27T04:18:41.211Z,5.90
2018-12-27T04:21:11.670Z,5.90
2018-12-27T04:23:42.345Z,5.80
2018-12-27T04:26:14.442Z,5.80
2018-12-27T04:28:45.062Z,6.00
2018-12-27T04:31:16.079Z,6.00
2018-12-27T04:33:47.108Z,5.90
2018-12-27T04:36:17.771Z,6.00
2018-12-27T04:38:48.162Z,6.00
2018-12-27T04:41:18.835Z,6.00
2018-12-27T04:43:50.510Z,6.00
2018-12-27T04:46:21.691Z,6.00
2018-12-27T04:48:51.966Z,6.10
2018-12-27T04:51:22.364Z,6.00
2018-12-27T04:53:52.778Z,5.90
2018-12-27T04:56:23.148Z,5.90
2018-12-27T04:58:53.600Z,5.90
2018-12-27T05:01:24.451Z,5.90
2018-12-27T05:03:54.899Z,6.00
2018-12-27T05:06:25.266Z,6.00
2018-12-27T05:08:55.644Z,5.90
2018-12-27T05:11:26.113Z,5.80
2018-12-27T05:13:58.191Z,5.80
2018-12-27T05:16:28.840Z,5.70
2018-12-27T05:18:59.287Z,5.80
2018-12-27T05:21:29.633Z,5.80
2018-12-27T05:24:00.055Z,5.90
2018-12-27T05:26:30.544Z,5.90
2018-12-27T05:29:01.055Z,5.90
2018-12-27T05:31:32.156Z,5.90
2018-12-27T05:34:02.635Z,5.80
2018-12-27T05:36:33.107Z,5.80
2018-12-27T05:39:05.852Z,5.80
2018-12-27T05:41:38.198Z,5.80
2018-12-27T05:44:08.727Z,5.70
2018-12-27T05:46:39.619Z,5.80
2018-12-27T05:49:09.968Z,5.90
2018-12-27T05:51:40.468Z,5.90
2018-12-27T05:54:10.948Z,5.90
2018-12-27T05:56:42.422Z,5.90
2018-12-27T05:59:13.692Z,6.00
2018-12-27T06:01:44.021Z,6.00
2018-12-27T06:04:15.224Z,5.80
2018-12-27T06:06:47.150Z,5.90
2018-12-27T06:09:20.291Z,5.80
2018-12-27T06:11:50.734Z,5.90
2018-12-27T06:14:21.987Z,5.90
2018-12-27T06:16:52.318Z,5.90
2018-12-27T06:19:22.666Z,5.80
2018-12-27T06:21:53.410Z,5.80
2018-12-27T06:24:23.892Z,5.80
2018-12-27T06:26:55.241Z,5.80
2018-12-27T06:29:25.583Z,5.90
2018-12-27T06:31:56.818Z,5.80
2018-12-27T06:34:27.221Z,5.80
2018-12-27T06:36:57.652Z,5.70
2018-12-27T06:39:29.066Z,5.80
2018-12-27T06:41:59.596Z,5.80
2018-12-27T06:44:30.023Z,5.70
2018-12-27T06:47:00.771Z,5.80
2018-12-27T06:49:31.188Z,5.70
2018-12-27T06:52:01.662Z,5.60
2018-12-27T06:54:33.615Z,5.70
2018-12-27T06:57:04.002Z,5.60
2018-12-27T06:59:34.667Z,5.60
2018-12-27T07:02:05.051Z,5.70
2018-12-27T07:04:35.523Z,5.70
2018-12-27T07:07:06.026Z,5.70
2018-12-27T07:09:36.512Z,5.70
2018-12-27T07:12:07.005Z,5.70
2018-12-27T07:14:37.408Z,5.80
2018-12-27T07:17:07.818Z,5.80
2018-12-27T07:19:38.279Z,5.80
2018-12-27T07:22:08.612Z,5.80
2018-12-27T07:24:38.980Z,5.70
2018-12-27T07:27:09.418Z,5.70
2018-12-27T07:29:39.869Z,5.70
2018-12-27T07:32:10.496Z,5.70
2018-12-27T07:34:41.202Z,5.60
2018-12-27T07:37:11.584Z,5.60
2018-12-27T07:39:41.962Z,5.60
2018-12-27T07:42:12.379Z,5.70
2018-12-27T07:44:42.835Z,5.70
2018-12-27T07:47:14.019Z,5.60
2018-12-27T07:49:44.384Z,5.70
2018-12-27T07:52:15.719Z,5.70
2018-12-27T07:54:46.192Z,5.70
2018-12-27T07:57:17.050Z,5.70
2018-12-27T07:59:47.477Z,5.70
2018-12-27T08:02:17.768Z,5.70
2018-12-27T08:04:48.271Z,5.80
2018-12-27T08:07:18.744Z,5.90
2018-12-27T08:09:49.133Z,5.90
2018-12-27T08:12:19.577Z,5.80
2018-12-27T08:14:50.271Z,5.80
2018-12-27T08:17:20.679Z,5.80
2018-12-27T08:19:51.039Z,5.80
2018-12-27T08:22:21.440Z,5.90
2018-12-27T08:24:51.913Z,5.90
2018-12-27T08:27:22.386Z,5.80
2018-12-27T08:29:53.530Z,5.70
2018-12-27T08:32:23.887Z,5.70
2018-12-27T08:34:54.339Z,5.70
2018-12-27T08:37:24.751Z,5.70
2018-12-27T08:39:55.359Z,5.60
2018-12-27T08:42:25.755Z,5.70
2018-12-27T08:44:56.104Z,5.60
2018-12-27T08:47:27.268Z,5.70
2018-12-27T08:49:57.714Z,5.80
2018-12-27T08:52:28.284Z,5.80
2018-12-27T08:54:58.608Z,5.80
2018-12-27T08:57:29.212Z,5.80
2018-12-27T08:59:59.571Z,5.90
2018-12-27T09:02:30.026Z,5.90
2018-12-27T09:05:00.492Z,5.80
2018-12-27T09:07:30.951Z,5.80
2018-12-27T09:10:02.186Z,5.90
2018-12-27T09:12:32.585Z,5.90
2018-12-27T09:15:02.979Z,6.10
2018-12-27T09:17:33.531Z,6.10
2018-12-27T09:20:04.342Z,6.20
2018-12-27T09:22:34.843Z,6.10
2018-12-27T09:25:05.266Z,6.10
2018-12-27T09:27:35.705Z,6.10
2018-12-27T09:30:06.731Z,6.10
2018-12-27T09:32:37.469Z,6.20
2018-12-27T09:35:08.044Z,6.30
2018-12-27T09:37:38.428Z,6.30
2018-12-27T09:40:08.886Z,6.30
2018-12-27T09:42:40.226Z,6.40
2018-12-27T09:45:10.705Z,6.50
2018-12-27T09:47:41.462Z,6.50
2018-12-27T09:50:12.746Z,6.40
2018-12-27T09:52:43.451Z,6.40
2018-12-27T09:55:13.912Z,6.50
2018-12-27T09:57:44.333Z,6.50
2018-12-27T10:00:14.799Z,6.60
2018-12-27T10:02:45.967Z,6.50
2018-12-27T10:05:16.293Z,6.50
2018-12-27T10:07:46.733Z,6.60
2018-12-27T10:10:17.174Z,6.50
2018-12-27T10:12:47.841Z,6.60
2018-12-27T10:15:18.291Z,6.90
2018-12-27T10:17:48.624Z,7.10
2018-12-27T10:20:18.982Z,7.10
2018-12-27T10:22:49.467Z,7.00
2018-12-27T10:25:19.891Z,7.20
2018-12-27T10:27:50.336Z,7.20
2018-12-27T10:30:20.647Z,7.20
2018-12-27T10:32:50.989Z,7.20
2018-12-27T10:35:21.423Z,7.20
2018-12-27T10:37:51.887Z,7.00
2018-12-27T10:40:22.452Z,7.00
2018-12-27T10:42:54.110Z,7.00
2018-12-27T10:45:24.441Z,7.00
2018-12-27T10:47:55.062Z,7.10
2018-12-27T10:50:25.555Z,7.20
2018-12-27T10:52:56.048Z,7.20
2018-12-27T10:55:26.555Z,7.20
2018-12-27T10:57:56.960Z,7.20
2018-12-27T11:00:27.318Z,7.20
2018-12-27T11:02:57.723Z,7.40
2018-12-27T11:05:28.150Z,7.80
2018-12-27T11:07:58.674Z,8.10
2018-12-27T11:10:29.075Z,8.30
2018-12-27T11:12:59.475Z,8.20
2018-12-27T11:15:30.000Z,8.30
2018-12-27T11:18:00.461Z,8.30
2018-12-27T11:20:30.919Z,8.30
2018-12-27T11:23:01.384Z,8.20
2018-12-27T11:25:31.796Z,8.30
2018-12-27T11:28:02.285Z,8.30
2018-12-27T11:30:32.983Z,8.40
2018-12-27T11:33:03.463Z,8.40
2018-12-27T11:35:34.011Z,8.20
2018-12-27T11:38:04.464Z,8.10
2018-12-27T11:40:34.900Z,7.90
2018-12-27T11:43:05.328Z,7.70
2018-12-27T11:45:35.788Z,7.80
2018-12-27T11:48:07.964Z,7.80
2018-12-27T11:50:38.304Z,7.90
2018-12-27T11:53:08.766Z,7.90
2018-12-27T11:55:39.495Z,8.10
2018-12-27T11:58:09.951Z,8.30
2018-12-27T12:00:41.227Z,8.20
2018-12-27T12:03:11.695Z,8.10
2018-12-27T12:05:44.806Z,8.20
2018-12-27T12:08:16.123Z,8.20
2018-12-27T12:10:46.664Z,8.20
2018-12-27T12:13:17.241Z,8.20
2018-12-27T12:15:47.663Z,8.20
2018-12-27T12:18:18.031Z,8.20
2018-12-27T12:20:48.448Z,8.10
2018-12-27T12:23:19.039Z,8.10
2018-12-27T12:25:49.455Z,8.20
2018-12-27T12:28:20.042Z,8.20
2018-12-27T12:30:50.905Z,8.10
2018-12-27T12:33:21.719Z,8.10
2018-12-27T12:35:52.458Z,8.10
2018-12-27T12:38:24.258Z,8.10
2018-12-27T12:40:54.687Z,8.10
2018-12-27T12:43:25.119Z,8.10
2018-12-27T12:45:55.472Z,8.10
2018-12-27T12:48:26.772Z,8.10
2018-12-27T12:50:57.166Z,8.10
2018-12-27T12:53:27.828Z,8.10
2018-12-27T12:55:58.350Z,8.10
2018-12-27T12:58:28.827Z,8.00
2018-12-27T13:00:59.224Z,8.00
2018-12-27T13:03:29.611Z,8.00
2018-12-27T13:06:00.072Z,8.00
2018-12-27T13:08:30.504Z,7.90
2018-12-27T13:11:00.958Z,7.90
2018-12-27T13:13:31.282Z,7.80
2018-12-27T13:16:02.666Z,7.70
2018-12-27T13:18:34.831Z,7.90
2018-12-27T13:21:05.322Z,8.00
2018-12-27T13:23:35.830Z,8.00
2018-12-27T13:26:06.564Z,8.00
2018-12-27T13:28:37.028Z,8.00
2018-12-27T13:31:07.889Z,8.10
2018-12-27T13:33:39.106Z,8.10
2018-12-27T13:36:09.609Z,8.10
2018-12-27T13:38:40.049Z,8.10
2018-12-27T13:41:10.528Z,8.10
2018-12-27T13:43:40.967Z,8.00
2018-12-27T13:46:11.413Z,8.00
2018-12-27T13:48:42.415Z,7.90
2018-12-27T13:51:13.003Z,7.90
2018-12-27T13:53:43.348Z,7.90
2018-12-27T13:56:13.690Z,7.80
2018-12-27T13:58:44.128Z,7.90
2018-12-27T14:01:14.592Z,7.90
2018-12-27T14:03:45.051Z,7.80
2018-12-27T14:06:15.603Z,7.80
2018-12-27T14:08:46.034Z,7.70
2018-12-27T14:11:17.615Z,7.50
2018-12-27T14:13:49.279Z,7.50
2018-12-27T14:16:19.731Z,7.50
2018-12-27T14:18:51.007Z,7.60
2018-12-27T14:21:22.142Z,7.60
2018-12-27T14:23:52.642Z,7.70
2018-12-27T14:26:23.031Z,7.70
2018-12-27T14:28:53.451Z,7.80
2018-12-27T14:31:23.912Z,7.80
2018-12-27T14:33:54.332Z,7.70
2018-12-27T14:36:25.680Z,7.70
2018-12-27T14:38:56.069Z,7.60
2018-12-27T14:41:26.496Z,7.60
2018-12-27T14:43:56.953Z,7.60
2018-12-27T14:46:28.246Z,7.50
2018-12-27T14:48:58.821Z,7.50
2018-12-27T14:51:29.326Z,7.50
2018-12-27T14:53:59.737Z,7.50
2018-12-27T14:56:30.055Z,7.50
2018-12-27T14:59:00.648Z,7.50
2018-12-27T15:01:32.512Z,7.50
2018-12-27T15:04:02.951Z,7.40
2018-12-27T15:06:33.307Z,7.40
2018-12-27T15:09:05.689Z,7.30
2018-12-27T15:11:36.266Z,7.30
2018-12-27T15:14:07.503Z,7.20
2018-12-27T15:16:41.651Z,7.20
2018-12-27T15:19:12.142Z,7.20
2018-12-27T15:21:44.084Z,7.20
2018-12-27T15:24:14.510Z,7.10
2018-12-27T15:26:45.057Z,7.10
2018-12-27T15:29:15.532Z,7.00
2018-12-27T15:31:46.006Z,7.00
2018-12-27T15:34:16.606Z,7.00
2018-12-27T15:36:54.153Z,7.00
2018-12-27T15:39:19.279Z,7.00
2018-12-27T15:41:49.815Z,7.00
2018-12-27T15:44:20.233Z,6.90
2018-12-27T15:46:50.797Z,6.90
2018-12-27T15:49:21.632Z,6.80
2018-12-27T15:51:52.227Z,6.80
2018-12-27T15:54:22.641Z,6.80
2018-12-27T15:56:53.205Z,6.90
2018-12-27T15:59:23.625Z,6.80
2018-12-27T16:01:54.125Z,6.80
2018-12-27T16:04:24.908Z,6.90
2018-12-27T16:07:01.479Z,6.90
2018-12-27T16:09:27.739Z,6.90
2018-12-27T16:11:59.043Z,6.80
2018-12-27T16:14:29.471Z,6.80
2018-12-27T16:16:59.928Z,6.80
2018-12-27T16:19:30.471Z,6.80
2018-12-27T16:22:00.927Z,6.70
2018-12-27T16:24:32.367Z,6.70
2018-12-27T16:27:02.803Z,6.70
2018-12-27T16:29:33.173Z,6.60
2018-12-27T16:32:04.498Z,6.60
2018-12-27T16:34:34.961Z,6.70
2018-12-27T16:37:08.898Z,6.70
2018-12-27T16:39:37.952Z,6.60
2018-12-27T16:42:08.487Z,6.50
2018-12-27T16:44:38.915Z,6.50
2018-12-27T16:47:09.339Z,6.40
2018-12-27T16:49:40.660Z,6.50
2018-12-27T16:52:11.200Z,6.40
2018-12-27T16:54:41.611Z,6.30
2018-12-27T16:57:12.143Z,6.30
2018-12-27T16:59:42.592Z,6.30
2018-12-27T17:02:13.169Z,6.30
2018-12-27T17:04:43.907Z,6.30
2018-12-27T17:07:16.217Z,6.20
2018-12-27T17:09:46.436Z,6.20
2018-12-27T17:12:16.866Z,6.20
2018-12-27T17:14:47.311Z,6.20
2018-12-27T17:17:17.867Z,6.20
2018-12-27T17:19:49.291Z,6.10
2018-12-27T17:22:19.770Z,6.10
2018-12-27T17:24:50.124Z,6.00
2018-12-27T17:27:20.595Z,6.00
2018-12-27T17:29:51.021Z,5.90
2018-12-27T17:32:21.799Z,5.90
2018-12-27T17:34:52.224Z,5.90
2018-12-27T17:37:23.534Z,5.90
2018-12-27T17:39:54.179Z,5.90
2018-12-27T17:42:24.617Z,5.80
2018-12-27T17:44:57.604Z,5.80
2018-12-27T17:47:28.110Z,5.90
2018-12-27T17:49:59.512Z,6.00
2018-12-27T17:52:30.491Z,5.90
2018-12-27T17:55:01.824Z,5.90
2018-12-27T17:57:32.425Z,5.70
2018-12-27T18:00:04.336Z,5.80
2018-12-27T18:02:36.440Z,5.90
2018-12-27T18:05:07.026Z,5.90
2018-12-27T18:07:37.442Z,5.90
2018-12-27T18:10:08.561Z,5.90
2018-12-27T18:12:39.071Z,5.90
2018-12-27T18:15:09.991Z,5.90
2018-12-27T18:17:40.355Z,5.90
2018-12-27T18:20:10.815Z,5.90
2018-12-27T18:22:41.224Z,5.80
2018-12-27T18:25:11.715Z,5.70
2018-12-27T18:27:42.340Z,5.80
2018-12-27T18:30:12.746Z,5.70
2018-12-27T18:32:43.125Z,5.80
2018-12-27T18:35:13.550Z,5.80
2018-12-27T18:37:43.983Z,5.80
2018-12-27T18:40:14.535Z,5.80
2018-12-27T18:42:44.879Z,5.80
2018-12-27T18:45:15.349Z,5.80
2018-12-27T18:47:45.799Z,5.80
2018-12-27T18:50:17.061Z,6.00
2018-12-27T18:52:47.505Z,6.00
2018-12-27T18:55:20.305Z,6.10
2018-12-27T18:57:53.463Z,6.10
2018-12-27T19:00:23.761Z,6.10
2018-12-27T19:02:54.219Z,6.10
2018-12-27T19:05:25.558Z,6.10
2018-12-27T19:07:56.016Z,6.00
2018-12-27T19:10:27.056Z,6.10
2018-12-27T19:13:11.705Z,6.10
2018-12-27T19:15:45.512Z,5.90
2018-12-27T19:18:21.208Z,6.00
2018-12-27T19:21:06.338Z,6.00
2018-12-27T19:23:36.716Z,6.00
2018-12-27T19:26:07.460Z,6.00
2018-12-27T19:28:37.944Z,6.10
2018-12-27T19:31:08.552Z,6.10
2018-12-27T19:33:40.564Z,6.10
2018-12-27T19:36:11.096Z,6.10
2018-12-27T19:38:42.559Z,6.10
2018-12-27T19:41:13.839Z,6.10
2018-12-27T19:43:44.518Z,6.10
2018-12-27T19:46:15.011Z,6.10
2018-12-27T19:48:45.388Z,6.10
2018-12-27T19:51:16.578Z,6.10
2018-12-27T19:53:46.987Z,6.00
2018-12-27T19:56:17.419Z,6.00
2018-12-27T19:58:48.300Z,6.00
2018-12-27T20:01:18.778Z,6.00
2018-12-27T20:03:49.996Z,6.00
2018-12-27T20:06:20.504Z,6.10
2018-12-27T20:08:51.391Z,6.10
2018-12-27T20:11:22.029Z,6.20
2018-12-27T20:13:52.470Z,6.10
2018-12-27T20:16:22.891Z,6.00
2018-12-27T20:18:53.276Z,6.00
2018-12-27T20:21:24.016Z,6.00
2018-12-27T20:23:59.936Z,6.10
2018-12-27T20:26:42.444Z,6.10
2018-12-27T20:29:25.028Z,6.20
2018-12-27T20:32:07.467Z,6.20
2018-12-27T20:34:50.071Z,6.10
2018-12-27T20:37:32.717Z,6.20
2018-12-27T20:40:15.086Z,6.20
2018-12-27T20:42:57.220Z,6.20
2018-12-27T20:45:39.234Z,6.20
2018-12-27T20:48:21.721Z,6.20
2018-12-27T20:51:04.414Z,6.20
2018-12-27T20:53:46.951Z,6.20
2018-12-27T20:56:29.642Z,6.20
2018-12-27T20:59:11.461Z,6.10
2018-12-27T21:01:54.268Z,6.10
2018-12-27T21:04:37.128Z,6.10
2018-12-27T21:07:19.608Z,6.10
2018-12-27T21:10:02.056Z,5.90
2018-12-27T21:12:44.160Z,5.90
2018-12-27T21:15:26.913Z,6.00
2018-12-27T21:18:10.148Z,5.90
2018-12-27T21:20:52.112Z,6.00
2018-12-27T21:23:34.853Z,6.00
2018-12-27T21:26:21.382Z,6.00
2018-12-27T21:29:03.768Z,6.10
2018-12-27T21:31:46.256Z,6.10
2018-12-27T21:34:28.919Z,6.10
2018-12-27T21:37:11.563Z,6.00
2018-12-27T21:39:53.968Z,6.00
2018-12-27T21:42:35.885Z,6.10
2018-12-27T21:45:18.519Z,6.10
2018-12-27T21:48:01.918Z,5.90
2018-12-27T21:50:44.505Z,5.80
2018-12-27T21:53:26.684Z,5.80
2018-12-27T21:56:09.730Z,5.90
2018-12-27T21:58:52.182Z,6.00
2018-12-27T22:01:23.527Z,5.90
2018-12-27T22:04:05.896Z,5.90
2018-12-27T22:06:48.713Z,5.90
2018-12-27T22:09:31.388Z,6.00
2018-12-27T22:12:13.400Z,6.00
2018-12-27T22:14:56.078Z,6.00
2018-12-27T22:17:39.330Z,6.10
2018-12-27T22:20:21.983Z,6.10
2018-12-27T22:23:04.287Z,6.20
2018-12-27T22:25:46.303Z,6.10
2018-12-27T22:28:16.791Z,6.20
2018-12-27T22:30:58.847Z,6.10
2018-12-27T22:33:42.176Z,6.10
2018-12-27T22:36:24.807Z,6.10
2018-12-27T22:39:07.520Z,6.10
2018-12-27T22:41:50.337Z,6.20
2018-12-27T22:44:32.227Z,6.20
2018-12-27T22:47:14.744Z,6.20
2018-12-27T22:50:04.727Z,6.30
2018-12-27T22:52:47.447Z,6.30
2018-12-27T22:55:30.108Z,6.20
2018-12-27T22:58:12.523Z,6.20
2018-12-27T23:00:55.192Z,6.30
2018-12-27T23:03:37.028Z,6.30
2018-12-27T23:06:18.963Z,6.30
2018-12-27T23:09:01.937Z,6.30
2018-12-27T23:11:34.479Z,6.30
2018-12-27T23:14:05.024Z,6.30
2018-12-27T23:16:47.484Z,6.30
2018-12-27T23:19:29.979Z,6.30
2018-12-27T23:22:12.455Z,6.30
2018-12-27T23:24:55.031Z,6.30
2018-12-27T23:27:37.820Z,6.30
2018-12-27T23:30:20.424Z,6.30
2018-12-27T23:33:02.691Z,6.30
2018-12-27T23:35:48.940Z,6.40
2018-12-27T23:38:31.751Z,6.40
2018-12-27T23:41:14.431Z,6.20
2018-12-27T23:43:57.004Z,6.10
2018-12-27T23:46:39.826Z,6.10
2018-12-27T23:49:22.365Z,6.20
2018-12-27T23:52:05.136Z,6.20
2018-12-27T23:54:47.625Z,6.30
2018-12-27T23:57:30.149Z,6.30
